createdAt,value
2023-03-22T00:01:58.752Z,33.10
2023-03-22T00:04:26.410Z,35.22
2023-03-22T00:06:53.899Z,33.15
2023-03-22T00:09:22.738Z,35.22
2023-03-22T00:11:51.103Z,31.10
2023-03-22T00:14:18.695Z,39.17
2023-03-22T00:16:49.260Z,39.05
2023-03-22T00:19:17.494Z,36.08
2023-03-22T00:21:45.207Z,36.53
2023-03-22T00:24:14.080Z,32.83
2023-03-22T00:26:42.988Z,35.55
2023-03-22T00:29:10.470Z,35.75
2023-03-22T00:31:38.001Z,35.05
2023-03-22T00:34:05.642Z,34.00
2023-03-22T00:36:33.148Z,41.55
2023-03-22T00:39:00.724Z,37.50
2023-03-22T00:41:28.201Z,34.90
2023-03-22T00:43:57.072Z,39.58
2023-03-22T00:46:24.690Z,32.95
2023-03-22T00:48:52.397Z,36.30
2023-03-22T00:51:19.881Z,39.17
2023-03-22T00:53:49.657Z,41.05
2023-03-22T00:56:17.197Z,37.00
2023-03-22T00:58:44.671Z,38.67
2023-03-22T01:01:14.511Z,38.10
2023-03-22T01:03:43.102Z,37.13
2023-03-22T01:06:11.098Z,39.53
2023-03-22T01:08:39.145Z,33.80
2023-03-22T01:11:07.939Z,33.28
2023-03-22T01:13:37.519Z,32.20
2023-03-22T01:16:05.690Z,33.33
2023-03-22T01:18:34.834Z,34.42
2023-03-22T01:21:02.567Z,32.55
2023-03-22T01:23:30.573Z,32.50
2023-03-22T01:25:58.036Z,33.83
2023-03-22T01:28:27.167Z,35.95
2023-03-22T01:30:55.201Z,33.15
2023-03-22T01:33:22.985Z,32.85
2023-03-22T01:35:51.809Z,33.72
2023-03-22T01:38:19.364Z,31.38
2023-03-22T01:40:46.951Z,30.73
2023-03-22T01:43:15.969Z,35.85
2023-03-22T01:45:45.787Z,29.30
2023-03-22T01:48:21.128Z,30.40
2023-03-22T01:50:57.401Z,28.30
2023-03-22T01:53:25.780Z,32.95
2023-03-22T01:55:54.873Z,33.90
2023-03-22T01:58:22.374Z,29.73
2023-03-22T02:00:51.141Z,32.83
2023-03-22T02:03:21.562Z,32.03
2023-03-22T02:05:49.121Z,30.05
2023-03-22T02:08:18.092Z,40.15
2023-03-22T02:10:45.705Z,35.42
2023-03-22T02:13:25.376Z,37.67
2023-03-22T02:16:02.226Z,28.58
2023-03-22T02:18:41.842Z,30.85
2023-03-22T02:21:38.868Z,29.25
2023-03-22T02:24:36.501Z,34.83
2023-03-22T02:27:36.838Z,31.65
2023-03-22T02:30:21.628Z,38.95
2023-03-22T02:33:13.640Z,37.58
2023-03-22T02:35:50.103Z,32.90
2023-03-22T02:38:25.905Z,34.38
2023-03-22T02:41:01.006Z,34.30
2023-03-22T02:43:38.471Z,35.28
2023-03-22T02:46:09.769Z,31.70
2023-03-22T02:48:41.596Z,37.03
2023-03-22T02:53:43.377Z,35.38
2023-03-22T02:56:15.515Z,35.85
2023-03-22T02:58:46.795Z,34.67
2023-03-22T03:01:18.172Z,32.03
2023-03-22T03:03:48.175Z,34.47
2023-03-22T03:06:19.290Z,39.40
2023-03-22T03:08:50.729Z,35.30
2023-03-22T03:11:20.004Z,37.20
2023-03-22T03:13:48.671Z,35.10
2023-03-22T03:16:17.797Z,36.88
2023-03-22T03:18:48.919Z,31.30
2023-03-22T03:21:25.268Z,36.88
2023-03-22T03:23:56.061Z,30.42
2023-03-22T03:26:30.756Z,32.15
2023-03-22T03:29:01.046Z,31.63
2023-03-22T03:31:33.393Z,36.92
2023-03-22T03:34:07.964Z,32.50
2023-03-22T03:36:37.815Z,32.80
2023-03-22T03:39:08.091Z,34.40
2023-03-22T03:41:37.057Z,31.90
2023-03-22T03:44:05.264Z,34.15
2023-03-22T03:46:32.763Z,31.98
2023-03-22T03:49:00.450Z,41.83
2023-03-22T03:51:28.581Z,38.15
2023-03-22T03:53:56.072Z,32.92
2023-03-22T03:56:23.635Z,34.33
2023-03-22T03:58:52.382Z,35.45
2023-03-22T04:01:20.780Z,38.13
2023-03-22T04:03:50.810Z,39.53
2023-03-22T04:06:18.327Z,37.00
2023-03-22T04:08:46.444Z,32.80
2023-03-22T04:11:13.911Z,33.00
2023-03-22T04:13:41.352Z,33.67
2023-03-22T04:16:11.013Z,32.17
2023-03-22T04:18:38.734Z,32.20
2023-03-22T04:21:06.699Z,32.22
2023-03-22T04:23:34.156Z,33.42
2023-03-22T04:26:01.630Z,27.48
2023-03-22T04:28:29.080Z,33.55
2023-03-22T04:30:57.902Z,32.67
2023-03-22T04:33:26.787Z,28.83
2023-03-22T04:35:56.974Z,31.02
2023-03-22T04:38:26.007Z,30.13
2023-03-22T04:40:53.474Z,31.48
2023-03-22T04:43:21.100Z,29.95
2023-03-22T04:45:48.869Z,34.38
2023-03-22T04:48:17.551Z,31.15
2023-03-22T04:50:46.398Z,29.55
2023-03-22T04:53:13.884Z,29.88
2023-03-22T04:55:41.621Z,33.08
2023-03-22T04:58:09.389Z,31.05
2023-03-22T05:00:37.665Z,35.00
2023-03-22T05:03:05.856Z,34.53
2023-03-22T05:05:33.359Z,36.05
2023-03-22T05:08:02.132Z,33.15
2023-03-22T05:10:29.607Z,34.10
2023-03-22T05:12:57.035Z,32.58
2023-03-22T05:15:24.543Z,34.33
2023-03-22T05:17:52.048Z,33.65
2023-03-22T05:20:19.497Z,33.28
2023-03-22T05:22:50.694Z,32.97
2023-03-22T05:25:19.507Z,39.05
2023-03-22T05:27:47.013Z,35.42
2023-03-22T05:30:15.551Z,41.80
2023-03-22T05:32:43.829Z,35.03
2023-03-22T05:35:11.627Z,39.78
2023-03-22T05:37:39.135Z,39.40
2023-03-22T05:40:10.024Z,40.78
2023-03-22T05:42:39.004Z,35.92
2023-03-22T05:45:07.964Z,35.42
2023-03-22T05:47:36.310Z,33.13
2023-03-22T05:50:03.993Z,32.35
2023-03-22T05:52:32.020Z,32.47
2023-03-22T05:54:59.517Z,32.10
2023-03-22T05:57:29.989Z,35.40
2023-03-22T05:59:58.839Z,32.97
2023-03-22T06:02:27.117Z,32.53
2023-03-22T06:04:54.593Z,32.22
2023-03-22T06:07:22.046Z,34.83
2023-03-22T06:09:50.193Z,30.58
2023-03-22T06:12:18.605Z,34.13
2023-03-22T06:14:46.205Z,34.90
2023-03-22T06:17:15.151Z,34.67
2023-03-22T06:19:42.667Z,31.67
2023-03-22T06:22:10.242Z,36.95
2023-03-22T06:24:40.532Z,31.27
2023-03-22T06:27:08.252Z,35.45
2023-03-22T06:29:35.884Z,32.42
2023-03-22T06:32:03.772Z,26.50
2023-03-22T06:34:32.680Z,27.45
2023-03-22T06:37:00.795Z,30.75
2023-03-22T06:39:28.465Z,30.17
2023-03-22T06:41:56.102Z,29.35
2023-03-22T06:44:23.597Z,26.33
2023-03-22T06:46:51.245Z,29.70
2023-03-22T06:49:19.342Z,27.67
2023-03-22T06:51:48.217Z,33.58
2023-03-22T06:54:16.768Z,31.00
2023-03-22T06:56:44.270Z,27.23
2023-03-22T06:59:11.932Z,26.38
2023-03-22T07:01:39.408Z,26.17
2023-03-22T07:04:06.953Z,31.15
2023-03-22T07:06:34.499Z,25.80
2023-03-22T07:09:03.486Z,30.45
2023-03-22T07:11:31.052Z,26.80
2023-03-22T07:13:58.569Z,23.98
2023-03-22T07:16:26.382Z,27.10
2023-03-22T07:18:54.209Z,23.83
2023-03-22T07:21:21.710Z,25.23
2023-03-22T07:23:49.209Z,23.85
2023-03-22T07:26:18.030Z,23.60
2023-03-22T07:28:46.169Z,23.13
2023-03-22T07:31:14.690Z,20.80
2023-03-22T07:33:42.447Z,25.17
2023-03-22T07:36:11.037Z,21.60
2023-03-22T07:38:38.742Z,25.48
2023-03-22T07:41:07.151Z,28.50
2023-03-22T07:43:47.467Z,19.52
2023-03-22T07:46:20.319Z,20.35
2023-03-22T07:48:47.892Z,20.25
2023-03-22T07:51:15.318Z,21.92
2023-03-22T07:53:42.853Z,19.25
2023-03-22T07:56:10.749Z,20.02
2023-03-22T07:58:39.617Z,18.73
2023-03-22T08:01:09.112Z,17.40
2023-03-22T08:03:37.671Z,18.17
2023-03-22T08:06:08.074Z,16.10
2023-03-22T08:08:36.909Z,16.23
2023-03-22T08:11:04.731Z,15.70
2023-03-22T08:13:32.347Z,16.35
2023-03-22T08:16:01.742Z,19.63
2023-03-22T08:18:29.234Z,17.45
2023-03-22T08:20:58.052Z,16.25
2023-03-22T08:23:38.378Z,16.30
2023-03-22T08:26:08.360Z,15.30
2023-03-22T08:28:36.244Z,17.65
2023-03-22T08:31:13.267Z,14.07
2023-03-22T08:33:41.578Z,17.23
2023-03-22T08:36:12.148Z,14.77
2023-03-22T08:38:39.662Z,21.00
2023-03-22T08:41:07.210Z,15.02
2023-03-22T08:43:34.804Z,18.02
2023-03-22T08:46:02.424Z,13.60
2023-03-22T08:48:32.157Z,14.57
2023-03-22T08:50:59.685Z,16.70
2023-03-22T08:53:27.098Z,15.40
2023-03-22T08:55:58.052Z,19.35
2023-03-22T08:58:25.634Z,15.27
2023-03-22T09:00:53.168Z,13.00
2023-03-22T09:03:20.866Z,11.48
2023-03-22T09:05:49.640Z,15.95
2023-03-22T09:08:26.197Z,11.90
2023-03-22T09:10:53.677Z,14.82
2023-03-22T09:13:22.594Z,13.35
2023-03-22T09:15:51.809Z,14.20
2023-03-22T09:18:19.850Z,13.45
2023-03-22T09:20:48.676Z,13.60
2023-03-22T09:23:16.613Z,12.02
2023-03-22T09:25:44.199Z,11.43
2023-03-22T09:28:11.950Z,10.77
2023-03-22T09:30:39.981Z,14.00
2023-03-22T09:33:07.783Z,12.68
2023-03-22T09:35:35.277Z,13.50
2023-03-22T09:38:06.094Z,16.70
2023-03-22T09:40:36.436Z,12.27
2023-03-22T09:43:05.805Z,9.88
2023-03-22T09:45:38.514Z,13.90
2023-03-22T09:48:09.338Z,13.77
2023-03-22T09:50:41.445Z,11.65
2023-03-22T09:53:13.804Z,11.93
2023-03-22T09:55:44.685Z,15.15
2023-03-22T09:58:22.790Z,13.48
2023-03-22T10:00:53.894Z,16.58
2023-03-22T10:03:31.297Z,11.25
2023-03-22T10:06:01.532Z,13.85
2023-03-22T10:08:38.067Z,14.73
2023-03-22T10:11:13.999Z,12.13
2023-03-22T10:13:46.344Z,15.75
2023-03-22T10:16:20.804Z,14.23
2023-03-22T10:18:51.109Z,12.48
2023-03-22T10:21:19.622Z,9.98
2023-03-22T10:23:50.798Z,11.52
2023-03-22T10:26:21.607Z,12.57
2023-03-22T10:28:51.675Z,13.05
2023-03-22T10:31:21.343Z,12.35
2023-03-22T10:33:55.339Z,12.63
2023-03-22T10:36:26.311Z,12.05
2023-03-22T10:38:59.649Z,12.30
2023-03-22T10:41:28.898Z,11.75
2023-03-22T10:43:58.150Z,8.35
2023-03-22T10:46:29.147Z,13.43
2023-03-22T10:48:59.879Z,11.27
2023-03-22T10:51:31.088Z,11.43
2023-03-22T10:54:01.683Z,11.80
2023-03-22T10:56:29.376Z,9.48
2023-03-22T10:58:57.303Z,12.68
2023-03-22T11:01:31.478Z,11.13
2023-03-22T11:04:01.778Z,12.70
2023-03-22T11:06:32.893Z,12.75
2023-03-22T11:09:03.976Z,10.68
2023-03-22T11:11:35.952Z,9.85
2023-03-22T11:14:06.472Z,10.10
2023-03-22T11:16:42.298Z,8.50
2023-03-22T11:19:15.606Z,7.03
2023-03-22T11:21:44.058Z,9.68
2023-03-22T11:24:14.342Z,8.32
2023-03-22T11:26:42.084Z,6.20
2023-03-22T11:29:14.029Z,9.00
2023-03-22T11:31:58.469Z,8.40
2023-03-22T11:34:28.777Z,6.43
2023-03-22T11:36:57.620Z,8.35
2023-03-22T11:39:29.352Z,8.68
2023-03-22T11:42:01.503Z,7.85
2023-03-22T11:44:33.987Z,6.55
2023-03-22T11:47:03.111Z,8.13
2023-03-22T11:49:38.982Z,8.35
2023-03-22T11:52:12.124Z,8.93
2023-03-22T11:54:42.514Z,7.85
2023-03-22T11:57:15.014Z,7.72
2023-03-22T11:59:48.776Z,9.05
2023-03-22T12:02:21.565Z,8.25
2023-03-22T12:04:51.724Z,7.70
2023-03-22T12:07:24.477Z,8.35
2023-03-22T12:09:59.140Z,8.80
2023-03-22T12:12:31.301Z,9.15
2023-03-22T12:15:02.467Z,9.27
2023-03-22T12:17:34.801Z,8.32
2023-03-22T12:20:08.597Z,7.80
2023-03-22T12:22:40.016Z,5.43
2023-03-22T12:25:13.749Z,6.57
2023-03-22T12:27:43.452Z,6.55
2023-03-22T12:30:15.401Z,8.90
2023-03-22T12:32:45.028Z,5.63
2023-03-22T12:35:18.299Z,8.13
2023-03-22T12:37:47.567Z,10.05
2023-03-22T12:40:21.929Z,6.78
2023-03-22T12:43:00.068Z,6.22
2023-03-22T12:45:29.192Z,7.15
2023-03-22T12:47:59.375Z,10.90
2023-03-22T12:50:32.341Z,4.30
2023-03-22T12:53:02.304Z,4.15
2023-03-22T12:55:32.726Z,7.82
2023-03-22T12:58:00.802Z,5.72
2023-03-22T13:00:30.415Z,7.20
2023-03-22T13:03:01.324Z,5.07
2023-03-22T13:05:30.840Z,6.27
2023-03-22T13:08:03.543Z,8.75
2023-03-22T13:11:00.151Z,5.63
2023-03-22T13:13:41.104Z,7.00
2023-03-22T13:16:22.547Z,9.65
2023-03-22T13:19:19.680Z,6.07
2023-03-22T13:21:49.546Z,9.15
2023-03-22T13:24:23.352Z,5.78
2023-03-22T13:26:53.627Z,5.18
2023-03-22T13:29:24.473Z,5.78
2023-03-22T13:31:58.531Z,3.13
2023-03-22T13:34:38.134Z,4.63
2023-03-22T13:37:10.871Z,4.28
2023-03-22T13:39:40.800Z,6.78
2023-03-22T13:42:18.235Z,6.82
2023-03-22T13:44:47.157Z,10.10
2023-03-22T13:47:39.526Z,3.85
2023-03-22T13:50:16.041Z,4.40
2023-03-22T13:52:45.196Z,3.47
2023-03-22T13:55:37.218Z,5.10
2023-03-22T14:00:50.011Z,6.45
2023-03-22T14:03:24.384Z,3.45
2023-03-22T14:06:01.466Z,5.60
2023-03-22T14:08:30.157Z,6.28
2023-03-22T14:10:59.520Z,4.22
2023-03-22T14:13:33.105Z,3.53
2023-03-22T14:16:05.913Z,4.78
2023-03-22T14:18:34.541Z,5.72
2023-03-22T14:21:04.872Z,5.55
